Terminal Aerodrome Forecast
Issued by NWS Amarillo, TX

Home | Current Version | Previous Version | Text Only | Print | Product List | Glossary On
Versions: 1 2 3 4 5 6 7 8 9 10 11 12 13 14 15 16 17 18 19 20 21 22 23 24 25 26 27
000
FTUS44 KAMA 030700 AAB
TAFDHT
TAF AMD
KDHT 030706Z 0307/0406 22014KT P6SM SKC WS020/24040KT
     FM031500 28015KT 6SM BR SCT010 BKN150
     FM032100 02015KT P6SM BKN150
     FM040400 05012KT P6SM SCT020=

USA.gov is the U.S. government's official web portal to all federal, state and local government web resources and services.